Stuart, IA

5:04 AM CDT on July 06, 2015 (GMT -0500)
S.W. of Earlham | | Change Station
CLOSE
Current Station
Personal Weather Station
Location: Earlham, IA
Elevation: 1145 ft
Nearby Weather Stations

Elev 1145 ft 41.46 °N, 94.17 °W | Updated 12 seconds ago

Partly Cloudy
Partly Cloudy
77.0 °F
Feels Like 78 °F
N
0.2
Wind Variable Wind from WSW
Gusts 2.5 mph

Today
High -- | Low -- °F
--% Chance of Precip.
Yesterday
High -- | Low -- °F
Precip. -- in
5:49 AM 8:53 PM
Waning Gibbous, 77% visible
Pressure 29.83 in
Visibility 7.0 miles
Clouds Overcast 2700 ft
Heat Index 78 °F
Dew Point 74 °F
Humidity 90%
Rainfall 0.00 in
Snow Depth Not available.
UV 0 out of 12
Pollen 4.50 out of 12
Air Quality Not available.
Flu Activity Not available.
METAR KPRO 060955Z AUTO 12005KT 7SM OVC027 24/23 A2983 RMK AO2 T02370228

More Conditions Fewer Conditions

Pressure 29.83 in
Visibility 7.0 miles
Clouds Overcast 2700 ft
Heat Index 78 °F
Dew Point 74 °F
Humidity 90%
Rainfall 0.00 in
Snow Depth Not available.
UV 0 out of 12
Pollen 4.50 out of 12
Air Quality Not available.
Flu Activity Not available.
METAR KPRO 060955Z AUTO 12005KT 7SM OVC027 24/23 A2983 RMK AO2 T02370228

More Conditions Fewer Conditions

10-Day Weather Forecast

×

Almanac

Astronomy

Jul. 06, 2015 Rise Set
Actual Time
Civil Twilight
Nautical Twilight
Astronomical Twilight
Moon
Length of Visible Light
Length of Day
Tomorrow will be .
, % of the Moon is Illuminated

Today's Extremes

State Highs State Lows

Community

WunderPhotos

Upload Photos

1,835,525 photos uploaded!

WunderBlogs® & News

Nearby

Air Quality

  Air Quality AQ Index Pollutant
Not available.

Snow Depth

Station Depth Elevation

Earthquake Activity

City Distance Mag. Time & Date
Minimum magnitude displayed is 2.5.

Coastal Water Temperatures

Place Temperature

Stations

Nearby Weather Stations

Station Location Temp. Windchill Dew Point Humidity Wind Precip. Elev Updated Type